sensor_id;sensor_type;location;lat;lon;timestamp;P1;durP1;ratioP1;P2;durP2;ratioP2
43990;SDS011;29654;50.784;20.604;2022-12-18T00:03:14;23.63;;;11.53;;
43990;SDS011;29654;50.784;20.604;2022-12-18T00:08:19;19.47;;;10.57;;
43990;SDS011;29654;50.784;20.604;2022-12-18T00:13:24;18.27;;;10.57;;
43990;SDS011;29654;50.784;20.604;2022-12-18T00:18:27;19.50;;;10.03;;
43990;SDS011;29654;50.784;20.604;2022-12-18T00:23:30;22.27;;;11.00;;
43990;SDS011;29654;50.784;20.604;2022-12-18T00:28:35;15.87;;;10.10;;
43990;SDS011;29654;50.784;20.604;2022-12-18T00:33:38;20.77;;;11.03;;
43990;SDS011;29654;50.784;20.604;2022-12-18T00:38:43;20.80;;;11.13;;
43990;SDS011;29654;50.784;20.604;2022-12-18T00:43:49;21.97;;;10.93;;
43990;SDS011;29654;50.784;20.604;2022-12-18T00:48:52;16.00;;;9.60;;
43990;SDS011;29654;50.784;20.604;2022-12-18T00:53:55;18.43;;;10.00;;
43990;SDS011;29654;50.784;20.604;2022-12-18T00:58:59;15.13;;;9.47;;
43990;SDS011;29654;50.784;20.604;2022-12-18T01:04:02;15.93;;;9.37;;
43990;SDS011;29654;50.784;20.604;2022-12-18T01:09:06;12.20;;;8.10;;
43990;SDS011;29654;50.784;20.604;2022-12-18T01:14:12;16.03;;;9.30;;
43990;SDS011;29654;50.784;20.604;2022-12-18T01:19:15;14.60;;;8.67;;
43990;SDS011;29654;50.784;20.604;2022-12-18T01:24:17;13.30;;;8.20;;
43990;SDS011;29654;50.784;20.604;2022-12-18T01:29:22;16.27;;;9.07;;
43990;SDS011;29654;50.784;20.604;2022-12-18T01:34:24;12.17;;;7.70;;
43990;SDS011;29654;50.784;20.604;2022-12-18T01:39:27;11.07;;;7.07;;
43990;SDS011;29654;50.784;20.604;2022-12-18T01:44:53;11.50;;;7.20;;
43990;SDS011;29654;50.784;20.604;2022-12-18T01:50:07;11.53;;;6.63;;
43990;SDS011;29654;50.784;20.604;2022-12-18T01:55:12;14.03;;;7.80;;
43990;SDS011;29654;50.784;20.604;2022-12-18T02:00:21;17.47;;;7.77;;
43990;SDS011;29654;50.784;20.604;2022-12-18T02:05:27;12.40;;;7.13;;
43990;SDS011;29654;50.784;20.604;2022-12-18T02:10:45;11.57;;;6.77;;
43990;SDS011;29654;50.784;20.604;2022-12-18T02:16:00;12.93;;;8.00;;
43990;SDS011;29654;50.784;20.604;2022-12-18T02:21:11;10.50;;;6.70;;
43990;SDS011;29654;50.784;20.604;2022-12-18T02:26:26;9.90;;;6.10;;
43990;SDS011;29654;50.784;20.604;2022-12-18T02:31:35;11.17;;;7.00;;
43990;SDS011;29654;50.784;20.604;2022-12-18T02:36:44;12.53;;;7.80;;
43990;SDS011;29654;50.784;20.604;2022-12-18T02:41:50;11.03;;;7.53;;
43990;SDS011;29654;50.784;20.604;2022-12-18T02:46:56;12.43;;;8.00;;
43990;SDS011;29654;50.784;20.604;2022-12-18T02:52:01;13.40;;;8.10;;
43990;SDS011;29654;50.784;20.604;2022-12-18T02:57:13;15.97;;;9.03;;
43990;SDS011;29654;50.784;20.604;2022-12-18T03:02:23;10.87;;;7.00;;
43990;SDS011;29654;50.784;20.604;2022-12-18T03:07:34;14.50;;;8.73;;
43990;SDS011;29654;50.784;20.604;2022-12-18T03:12:46;12.83;;;7.77;;
43990;SDS011;29654;50.784;20.604;2022-12-18T03:17:55;13.67;;;8.20;;
43990;SDS011;29654;50.784;20.604;2022-12-18T03:23:06;15.20;;;9.17;;
43990;SDS011;29654;50.784;20.604;2022-12-18T03:28:14;17.30;;;9.27;;
43990;SDS011;29654;50.784;20.604;2022-12-18T03:33:25;19.03;;;10.10;;
43990;SDS011;29654;50.784;20.604;2022-12-18T03:38:33;19.17;;;10.67;;
43990;SDS011;29654;50.784;20.604;2022-12-18T03:43:41;21.47;;;10.73;;
43990;SDS011;29654;50.784;20.604;2022-12-18T03:48:51;21.67;;;10.27;;
43990;SDS011;29654;50.784;20.604;2022-12-18T03:54:01;21.10;;;10.70;;
43990;SDS011;29654;50.784;20.604;2022-12-18T03:59:13;24.50;;;10.60;;
43990;SDS011;29654;50.784;20.604;2022-12-18T04:04:18;19.17;;;10.50;;
43990;SDS011;29654;50.784;20.604;2022-12-18T04:09:22;18.33;;;9.93;;
43990;SDS011;29654;50.784;20.604;2022-12-18T04:14:28;17.37;;;8.97;;
43990;SDS011;29654;50.784;20.604;2022-12-18T04:19:37;13.50;;;7.87;;
43990;SDS011;29654;50.784;20.604;2022-12-18T04:24:41;16.20;;;9.27;;
43990;SDS011;29654;50.784;20.604;2022-12-18T04:29:57;18.53;;;9.87;;
43990;SDS011;29654;50.784;20.604;2022-12-18T04:34:59;14.37;;;8.63;;
43990;SDS011;29654;50.784;20.604;2022-12-18T04:40:06;22.10;;;10.00;;
43990;SDS011;29654;50.784;20.604;2022-12-18T04:45:16;22.47;;;11.30;;
43990;SDS011;29654;50.784;20.604;2022-12-18T04:50:19;28.60;;;14.20;;
43990;SDS011;29654;50.784;20.604;2022-12-18T04:55:25;22.27;;;11.80;;
43990;SDS011;29654;50.784;20.604;2022-12-18T05:00:29;21.27;;;11.17;;
43990;SDS011;29654;50.784;20.604;2022-12-18T05:05:34;26.50;;;11.97;;
43990;SDS011;29654;50.784;20.604;2022-12-18T05:10:37;19.73;;;9.43;;
43990;SDS011;29654;50.784;20.604;2022-12-18T05:15:41;18.37;;;9.53;;
43990;SDS011;29654;50.784;20.604;2022-12-18T05:20:44;20.83;;;11.43;;
43990;SDS011;29654;50.784;20.604;2022-12-18T05:25:47;26.40;;;12.67;;
43990;SDS011;29654;50.784;20.604;2022-12-18T05:30:55;20.33;;;10.60;;
43990;SDS011;29654;50.784;20.604;2022-12-18T05:36:00;22.57;;;11.13;;
43990;SDS011;29654;50.784;20.604;2022-12-18T05:41:06;17.77;;;10.10;;
43990;SDS011;29654;50.784;20.604;2022-12-18T05:46:13;18.13;;;9.07;;
43990;SDS011;29654;50.784;20.604;2022-12-18T05:51:18;24.10;;;11.07;;
43990;SDS011;29654;50.784;20.604;2022-12-18T05:56:23;24.87;;;12.27;;
43990;SDS011;29654;50.784;20.604;2022-12-18T06:01:27;20.27;;;10.97;;
43990;SDS011;29654;50.784;20.604;2022-12-18T06:06:30;16.07;;;8.63;;
43990;SDS011;29654;50.784;20.604;2022-12-18T06:11:32;19.30;;;9.87;;
43990;SDS011;29654;50.784;20.604;2022-12-18T06:16:37;18.30;;;9.83;;
43990;SDS011;29654;50.784;20.604;2022-12-18T06:21:40;15.73;;;8.50;;
43990;SDS011;29654;50.784;20.604;2022-12-18T06:26:42;13.73;;;8.83;;
43990;SDS011;29654;50.784;20.604;2022-12-18T06:31:46;16.93;;;8.27;;
43990;SDS011;29654;50.784;20.604;2022-12-18T06:36:49;14.97;;;8.37;;
43990;SDS011;29654;50.784;20.604;2022-12-18T06:41:52;13.97;;;8.17;;
43990;SDS011;29654;50.784;20.604;2022-12-18T06:46:56;14.27;;;7.43;;
43990;SDS011;29654;50.784;20.604;2022-12-18T06:51:59;15.67;;;8.93;;
43990;SDS011;29654;50.784;20.604;2022-12-18T06:57:01;15.50;;;8.13;;
43990;SDS011;29654;50.784;20.604;2022-12-18T07:02:06;14.80;;;8.57;;
43990;SDS011;29654;50.784;20.604;2022-12-18T07:07:12;18.93;;;10.10;;
43990;SDS011;29654;50.784;20.604;2022-12-18T07:12:15;17.47;;;9.43;;
43990;SDS011;29654;50.784;20.604;2022-12-18T07:17:19;16.23;;;9.17;;
43990;SDS011;29654;50.784;20.604;2022-12-18T07:22:22;18.67;;;9.87;;
43990;SDS011;29654;50.784;20.604;2022-12-18T07:27:26;16.40;;;9.97;;
43990;SDS011;29654;50.784;20.604;2022-12-18T07:32:31;15.90;;;9.70;;
43990;SDS011;29654;50.784;20.604;2022-12-18T07:37:34;16.13;;;8.20;;
43990;SDS011;29654;50.784;20.604;2022-12-18T07:42:37;17.00;;;9.50;;
43990;SDS011;29654;50.784;20.604;2022-12-18T07:47:41;15.50;;;9.27;;
43990;SDS011;29654;50.784;20.604;2022-12-18T07:52:44;16.40;;;8.50;;
43990;SDS011;29654;50.784;20.604;2022-12-18T07:57:46;12.53;;;8.93;;
43990;SDS011;29654;50.784;20.604;2022-12-18T08:02:51;21.17;;;11.83;;
43990;SDS011;29654;50.784;20.604;2022-12-18T08:07:54;16.83;;;9.93;;
43990;SDS011;29654;50.784;20.604;2022-12-18T08:12:56;21.10;;;11.30;;
43990;SDS011;29654;50.784;20.604;2022-12-18T08:18:00;16.57;;;9.10;;
43990;SDS011;29654;50.784;20.604;2022-12-18T08:23:03;18.80;;;11.53;;
43990;SDS011;29654;50.784;20.604;2022-12-18T08:28:06;20.03;;;9.67;;
43990;SDS011;29654;50.784;20.604;2022-12-18T08:33:10;17.50;;;10.27;;
43990;SDS011;29654;50.784;20.604;2022-12-18T08:38:13;16.70;;;9.90;;
43990;SDS011;29654;50.784;20.604;2022-12-18T08:43:15;18.67;;;10.27;;
43990;SDS011;29654;50.784;20.604;2022-12-18T08:48:36;17.00;;;10.03;;
43990;SDS011;29654;50.784;20.604;2022-12-18T08:53:39;15.97;;;9.00;;
43990;SDS011;29654;50.784;20.604;2022-12-18T08:58:42;18.47;;;10.33;;
43990;SDS011;29654;50.784;20.604;2022-12-18T09:03:47;19.40;;;11.07;;
43990;SDS011;29654;50.784;20.604;2022-12-18T09:08:49;15.13;;;9.87;;
43990;SDS011;29654;50.784;20.604;2022-12-18T09:13:52;22.77;;;11.73;;
43990;SDS011;29654;50.784;20.604;2022-12-18T09:18:57;22.03;;;12.13;;
43990;SDS011;29654;50.784;20.604;2022-12-18T09:24:01;18.65;;;11.02;;
43990;SDS011;29654;50.784;20.604;2022-12-18T09:29:04;21.98;;;12.70;;
43990;SDS011;29654;50.784;20.604;2022-12-18T09:34:09;23.42;;;13.57;;
43990;SDS011;29654;50.784;20.604;2022-12-18T09:39:11;22.52;;;12.52;;
43990;SDS011;29654;50.784;20.604;2022-12-18T09:44:17;31.52;;;16.08;;
43990;SDS011;29654;50.784;20.604;2022-12-18T09:49:28;19.20;;;11.73;;
43990;SDS011;29654;50.784;20.604;2022-12-18T09:54:38;22.77;;;13.15;;
43990;SDS011;29654;50.784;20.604;2022-12-18T09:59:41;20.83;;;11.85;;
43990;SDS011;29654;50.784;20.604;2022-12-18T10:04:56;18.77;;;11.30;;
43990;SDS011;29654;50.784;20.604;2022-12-18T10:10:36;18.70;;;11.52;;
43990;SDS011;29654;50.784;20.604;2022-12-18T10:15:47;19.45;;;11.88;;
43990;SDS011;29654;50.784;20.604;2022-12-18T10:21:05;15.52;;;10.27;;
43990;SDS011;29654;50.784;20.604;2022-12-18T10:26:13;20.33;;;12.05;;
43990;SDS011;29654;50.784;20.604;2022-12-18T10:31:17;22.55;;;11.90;;
43990;SDS011;29654;50.784;20.604;2022-12-18T10:36:24;18.80;;;11.40;;
43990;SDS011;29654;50.784;20.604;2022-12-18T10:41:27;18.10;;;11.15;;
43990;SDS011;29654;50.784;20.604;2022-12-18T10:46:31;23.63;;;13.15;;
43990;SDS011;29654;50.784;20.604;2022-12-18T10:51:36;20.98;;;12.93;;
43990;SDS011;29654;50.784;20.604;2022-12-18T10:56:39;20.15;;;11.55;;
43990;SDS011;29654;50.784;20.604;2022-12-18T11:01:46;20.02;;;11.82;;
43990;SDS011;29654;50.784;20.604;2022-12-18T11:06:59;19.48;;;11.75;;
43990;SDS011;29654;50.784;20.604;2022-12-18T11:12:15;18.55;;;11.07;;
43990;SDS011;29654;50.784;20.604;2022-12-18T11:17:21;26.13;;;14.43;;
43990;SDS011;29654;50.784;20.604;2022-12-18T11:22:33;28.65;;;15.77;;
43990;SDS011;29654;50.784;20.604;2022-12-18T11:27:38;24.00;;;13.70;;
43990;SDS011;29654;50.784;20.604;2022-12-18T11:32:42;18.30;;;10.68;;
43990;SDS011;29654;50.784;20.604;2022-12-18T11:37:50;23.92;;;13.40;;
43990;SDS011;29654;50.784;20.604;2022-12-18T11:42:59;18.85;;;11.25;;
43990;SDS011;29654;50.784;20.604;2022-12-18T11:48:12;25.60;;;12.93;;
43990;SDS011;29654;50.784;20.604;2022-12-18T11:53:22;20.13;;;11.68;;
43990;SDS011;29654;50.784;20.604;2022-12-18T11:58:30;17.60;;;11.10;;
43990;SDS011;29654;50.784;20.604;2022-12-18T12:04:15;19.67;;;11.52;;
43990;SDS011;29654;50.784;20.604;2022-12-18T12:09:36;19.17;;;11.70;;
43990;SDS011;29654;50.784;20.604;2022-12-18T12:14:48;18.83;;;11.13;;
43990;SDS011;29654;50.784;20.604;2022-12-18T12:20:06;21.95;;;13.82;;
43990;SDS011;29654;50.784;20.604;2022-12-18T12:25:21;18.75;;;12.18;;
43990;SDS011;29654;50.784;20.604;2022-12-18T12:30:36;25.50;;;14.73;;
43990;SDS011;29654;50.784;20.604;2022-12-18T12:35:49;20.52;;;12.73;;
43990;SDS011;29654;50.784;20.604;2022-12-18T12:41:02;21.25;;;13.30;;
43990;SDS011;29654;50.784;20.604;2022-12-18T12:46:29;20.48;;;13.20;;
43990;SDS011;29654;50.784;20.604;2022-12-18T12:51:37;25.00;;;14.07;;
43990;SDS011;29654;50.784;20.604;2022-12-18T12:56:46;22.60;;;13.85;;
43990;SDS011;29654;50.784;20.604;2022-12-18T13:02:00;21.27;;;13.35;;
43990;SDS011;29654;50.784;20.604;2022-12-18T13:07:17;20.67;;;12.57;;
43990;SDS011;29654;50.784;20.604;2022-12-18T13:12:29;22.45;;;13.45;;
43990;SDS011;29654;50.784;20.604;2022-12-18T13:18:04;19.17;;;11.40;;
43990;SDS011;29654;50.784;20.604;2022-12-18T13:23:27;19.73;;;12.00;;
43990;SDS011;29654;50.784;20.604;2022-12-18T13:28:53;16.17;;;10.32;;
43990;SDS011;29654;50.784;20.604;2022-12-18T13:34:09;20.17;;;11.25;;
43990;SDS011;29654;50.784;20.604;2022-12-18T13:39:23;18.70;;;10.73;;
43990;SDS011;29654;50.784;20.604;2022-12-18T13:44:34;20.33;;;12.27;;
43990;SDS011;29654;50.784;20.604;2022-12-18T13:49:40;16.77;;;10.13;;
43990;SDS011;29654;50.784;20.604;2022-12-18T13:54:47;19.30;;;10.68;;
43990;SDS011;29654;50.784;20.604;2022-12-18T13:59:54;15.95;;;9.80;;
43990;SDS011;29654;50.784;20.604;2022-12-18T14:04:58;16.10;;;10.13;;
43990;SDS011;29654;50.784;20.604;2022-12-18T14:10:00;16.98;;;10.50;;
43990;SDS011;29654;50.784;20.604;2022-12-18T14:15:07;16.98;;;10.55;;
43990;SDS011;29654;50.784;20.604;2022-12-18T14:20:26;15.27;;;9.95;;
43990;SDS011;29654;50.784;20.604;2022-12-18T14:25:32;16.65;;;10.55;;
43990;SDS011;29654;50.784;20.604;2022-12-18T14:30:37;15.60;;;9.10;;
43990;SDS011;29654;50.784;20.604;2022-12-18T14:35:42;17.08;;;10.82;;
43990;SDS011;29654;50.784;20.604;2022-12-18T14:40:56;15.88;;;9.48;;
43990;SDS011;29654;50.784;20.604;2022-12-18T14:46:02;17.42;;;11.10;;
43990;SDS011;29654;50.784;20.604;2022-12-18T14:51:14;17.30;;;10.30;;
43990;SDS011;29654;50.784;20.604;2022-12-18T14:56:20;17.20;;;11.18;;
43990;SDS011;29654;50.784;20.604;2022-12-18T15:01:27;17.67;;;10.23;;
43990;SDS011;29654;50.784;20.604;2022-12-18T15:06:34;18.13;;;10.35;;
43990;SDS011;29654;50.784;20.604;2022-12-18T15:11:44;15.00;;;9.73;;
43990;SDS011;29654;50.784;20.604;2022-12-18T15:16:51;15.15;;;9.27;;
43990;SDS011;29654;50.784;20.604;2022-12-18T15:21:55;12.00;;;7.65;;
43990;SDS011;29654;50.784;20.604;2022-12-18T15:26:57;15.57;;;9.80;;
43990;SDS011;29654;50.784;20.604;2022-12-18T15:32:02;17.30;;;10.85;;
43990;SDS011;29654;50.784;20.604;2022-12-18T15:37:07;16.02;;;9.15;;
43990;SDS011;29654;50.784;20.604;2022-12-18T15:42:12;18.98;;;10.15;;
43990;SDS011;29654;50.784;20.604;2022-12-18T15:47:34;14.73;;;9.30;;
43990;SDS011;29654;50.784;20.604;2022-12-18T15:52:39;14.60;;;9.32;;
43990;SDS011;29654;50.784;20.604;2022-12-18T15:57:43;17.35;;;9.68;;
43990;SDS011;29654;50.784;20.604;2022-12-18T16:02:47;16.45;;;9.50;;
43990;SDS011;29654;50.784;20.604;2022-12-18T16:07:50;15.45;;;9.20;;
43990;SDS011;29654;50.784;20.604;2022-12-18T16:12:53;13.30;;;8.70;;
43990;SDS011;29654;50.784;20.604;2022-12-18T16:17:57;16.50;;;9.90;;
43990;SDS011;29654;50.784;20.604;2022-12-18T16:23:00;12.93;;;8.05;;
43990;SDS011;29654;50.784;20.604;2022-12-18T16:28:03;17.17;;;9.35;;
43990;SDS011;29654;50.784;20.604;2022-12-18T16:33:07;15.05;;;8.98;;
43990;SDS011;29654;50.784;20.604;2022-12-18T16:38:11;17.65;;;11.65;;
43990;SDS011;29654;50.784;20.604;2022-12-18T16:43:14;18.08;;;12.15;;
43990;SDS011;29654;50.784;20.604;2022-12-18T16:48:18;16.35;;;9.20;;
43990;SDS011;29654;50.784;20.604;2022-12-18T16:53:20;14.30;;;8.93;;
43990;SDS011;29654;50.784;20.604;2022-12-18T16:58:24;15.20;;;7.97;;
43990;SDS011;29654;50.784;20.604;2022-12-18T17:03:28;12.60;;;8.27;;
43990;SDS011;29654;50.784;20.604;2022-12-18T17:08:30;16.50;;;8.85;;
43990;SDS011;29654;50.784;20.604;2022-12-18T17:13:33;13.40;;;8.20;;
43990;SDS011;29654;50.784;20.604;2022-12-18T17:18:37;12.60;;;8.48;;
43990;SDS011;29654;50.784;20.604;2022-12-18T17:23:40;16.25;;;9.95;;
43990;SDS011;29654;50.784;20.604;2022-12-18T17:28:43;14.50;;;9.32;;
43990;SDS011;29654;50.784;20.604;2022-12-18T17:33:48;16.37;;;9.20;;
43990;SDS011;29654;50.784;20.604;2022-12-18T17:38:51;15.03;;;9.13;;
43990;SDS011;29654;50.784;20.604;2022-12-18T17:43:56;15.05;;;9.27;;
43990;SDS011;29654;50.784;20.604;2022-12-18T17:49:02;14.52;;;8.68;;
43990;SDS011;29654;50.784;20.604;2022-12-18T17:54:05;15.77;;;9.30;;
43990;SDS011;29654;50.784;20.604;2022-12-18T17:59:08;16.85;;;9.70;;
43990;SDS011;29654;50.784;20.604;2022-12-18T18:04:12;15.88;;;9.45;;
43990;SDS011;29654;50.784;20.604;2022-12-18T18:09:16;18.80;;;10.43;;
43990;SDS011;29654;50.784;20.604;2022-12-18T18:14:19;14.38;;;8.38;;
43990;SDS011;29654;50.784;20.604;2022-12-18T18:19:23;16.63;;;9.83;;
43990;SDS011;29654;50.784;20.604;2022-12-18T18:24:26;16.45;;;9.35;;
43990;SDS011;29654;50.784;20.604;2022-12-18T18:29:29;17.13;;;10.00;;
43990;SDS011;29654;50.784;20.604;2022-12-18T18:34:33;13.85;;;7.85;;
43990;SDS011;29654;50.784;20.604;2022-12-18T18:39:36;14.23;;;7.80;;
43990;SDS011;29654;50.784;20.604;2022-12-18T18:44:38;13.43;;;8.03;;
43990;SDS011;29654;50.784;20.604;2022-12-18T18:49:43;12.97;;;8.47;;
43990;SDS011;29654;50.784;20.604;2022-12-18T18:54:45;13.37;;;7.57;;
43990;SDS011;29654;50.784;20.604;2022-12-18T18:59:49;13.65;;;7.30;;
43990;SDS011;29654;50.784;20.604;2022-12-18T19:04:53;13.80;;;7.70;;
43990;SDS011;29654;50.784;20.604;2022-12-18T19:09:57;13.52;;;7.18;;
43990;SDS011;29654;50.784;20.604;2022-12-18T19:15:00;11.67;;;6.90;;
43990;SDS011;29654;50.784;20.604;2022-12-18T19:20:04;13.60;;;7.10;;
43990;SDS011;29654;50.784;20.604;2022-12-18T19:25:09;12.60;;;7.43;;
43990;SDS011;29654;50.784;20.604;2022-12-18T19:30:12;15.80;;;8.23;;
43990;SDS011;29654;50.784;20.604;2022-12-18T19:35:17;13.60;;;8.10;;
43990;SDS011;29654;50.784;20.604;2022-12-18T19:40:19;12.20;;;7.13;;
43990;SDS011;29654;50.784;20.604;2022-12-18T19:45:22;14.80;;;7.10;;
43990;SDS011;29654;50.784;20.604;2022-12-18T19:50:26;12.73;;;7.53;;
43990;SDS011;29654;50.784;20.604;2022-12-18T19:55:29;14.33;;;8.07;;
43990;SDS011;29654;50.784;20.604;2022-12-18T20:00:31;13.30;;;7.37;;
43990;SDS011;29654;50.784;20.604;2022-12-18T20:05:35;14.33;;;7.53;;
43990;SDS011;29654;50.784;20.604;2022-12-18T20:10:38;15.93;;;8.07;;
43990;SDS011;29654;50.784;20.604;2022-12-18T20:15:44;13.73;;;7.57;;
43990;SDS011;29654;50.784;20.604;2022-12-18T20:20:48;12.73;;;8.03;;
43990;SDS011;29654;50.784;20.604;2022-12-18T20:25:51;14.83;;;8.50;;
43990;SDS011;29654;50.784;20.604;2022-12-18T20:30:57;15.47;;;8.20;;
43990;SDS011;29654;50.784;20.604;2022-12-18T20:36:03;12.20;;;7.93;;
43990;SDS011;29654;50.784;20.604;2022-12-18T20:41:07;14.23;;;8.50;;
43990;SDS011;29654;50.784;20.604;2022-12-18T20:46:11;16.80;;;8.67;;
43990;SDS011;29654;50.784;20.604;2022-12-18T20:51:20;16.37;;;8.60;;
43990;SDS011;29654;50.784;20.604;2022-12-18T20:56:26;15.60;;;8.20;;
43990;SDS011;29654;50.784;20.604;2022-12-18T21:01:30;16.07;;;9.20;;
43990;SDS011;29654;50.784;20.604;2022-12-18T21:06:34;16.43;;;7.93;;
43990;SDS011;29654;50.784;20.604;2022-12-18T21:11:37;16.53;;;8.37;;
43990;SDS011;29654;50.784;20.604;2022-12-18T21:16:57;19.17;;;10.33;;
43990;SDS011;29654;50.784;20.604;2022-12-18T21:22:02;15.10;;;8.47;;
43990;SDS011;29654;50.784;20.604;2022-12-18T21:27:05;17.47;;;9.03;;
43990;SDS011;29654;50.784;20.604;2022-12-18T21:32:08;17.27;;;9.83;;
43990;SDS011;29654;50.784;20.604;2022-12-18T21:37:14;16.10;;;8.53;;
43990;SDS011;29654;50.784;20.604;2022-12-18T21:42:17;13.40;;;9.17;;
43990;SDS011;29654;50.784;20.604;2022-12-18T21:47:38;14.87;;;8.07;;
43990;SDS011;29654;50.784;20.604;2022-12-18T21:52:42;20.53;;;8.57;;
43990;SDS011;29654;50.784;20.604;2022-12-18T21:57:45;16.43;;;8.17;;
43990;SDS011;29654;50.784;20.604;2022-12-18T22:02:47;17.30;;;8.83;;
43990;SDS011;29654;50.784;20.604;2022-12-18T22:07:51;14.27;;;8.33;;
43990;SDS011;29654;50.784;20.604;2022-12-18T22:12:54;20.27;;;9.83;;
43990;SDS011;29654;50.784;20.604;2022-12-18T22:17:57;18.23;;;9.27;;
43990;SDS011;29654;50.784;20.604;2022-12-18T22:23:01;16.70;;;8.80;;
43990;SDS011;29654;50.784;20.604;2022-12-18T22:28:04;18.17;;;8.90;;
43990;SDS011;29654;50.784;20.604;2022-12-18T22:33:24;13.93;;;8.57;;
43990;SDS011;29654;50.784;20.604;2022-12-18T22:38:28;15.20;;;8.23;;
43990;SDS011;29654;50.784;20.604;2022-12-18T22:43:31;15.50;;;9.20;;
43990;SDS011;29654;50.784;20.604;2022-12-18T22:48:33;14.90;;;8.60;;
43990;SDS011;29654;50.784;20.604;2022-12-18T22:53:37;18.03;;;8.93;;
43990;SDS011;29654;50.784;20.604;2022-12-18T22:58:40;18.23;;;9.00;;
43990;SDS011;29654;50.784;20.604;2022-12-18T23:03:43;18.83;;;9.50;;
43990;SDS011;29654;50.784;20.604;2022-12-18T23:08:47;15.57;;;8.40;;
43990;SDS011;29654;50.784;20.604;2022-12-18T23:13:51;16.03;;;8.73;;
43990;SDS011;29654;50.784;20.604;2022-12-18T23:18:55;17.87;;;9.67;;
43990;SDS011;29654;50.784;20.604;2022-12-18T23:23:59;15.87;;;8.53;;
43990;SDS011;29654;50.784;20.604;2022-12-18T23:29:02;13.43;;;8.20;;
43990;SDS011;29654;50.784;20.604;2022-12-18T23:34:05;16.00;;;8.90;;
43990;SDS011;29654;50.784;20.604;2022-12-18T23:39:10;17.00;;;8.60;;
43990;SDS011;29654;50.784;20.604;2022-12-18T23:44:14;16.30;;;8.57;;
43990;SDS011;29654;50.784;20.604;2022-12-18T23:49:16;16.77;;;8.87;;
43990;SDS011;29654;50.784;20.604;2022-12-18T23:54:20;18.93;;;9.30;;
43990;SDS011;29654;50.784;20.604;2022-12-18T23:59:23;14.13;;;8.43;;
